Time;durP1;ratioP1;P1;durP2;ratioP2;P2;SDS_P1;SDS_P2;PMS_P1;PMS_P2;Temp;Humidity;BMP_temperature;BMP_pressure;BME280_temperature;BME280_humidity;BME280_pressure;Samples;Min_cycle;Max_cycle;Signal;HPM_P1;HPM_P2
2023/06/30 00:00:36;;;;;;;4.37;0.90;;;;;;;;;;5281877;28;20259;-74
2023/06/30 00:03:07;;;;;;;4.15;0.90;;;;;;;;;;5281254;28;20340;-74
2023/06/30 00:05:40;;;;;;;5.88;0.80;;;;;;;;;;5281547;28;20486;-74
2023/06/30 00:08:11;;;;;;;4.23;0.70;;;;;;;;;;5281376;28;20085;-74
2023/06/30 00:10:43;;;;;;;5.05;0.68;;;;;;;;;;5281558;28;20806;-74
2023/06/30 00:13:14;;;;;;;4.13;0.70;;;;;;;;;;5281888;28;20044;-74
2023/06/30 00:15:45;;;;;;;4.18;0.60;;;;;;;;;;5280879;28;20044;-74
2023/06/30 00:18:16;;;;;;;5.63;1.00;;;;;;;;;;5282092;28;20023;-74
2023/06/30 00:20:47;;;;;;;4.63;0.80;;;;;;;;;;5281489;28;20096;-75
2023/06/30 00:23:20;;;;;;;7.03;0.70;;;;;;;;;;5281007;28;20274;-74
2023/06/30 00:25:51;;;;;;;3.33;0.60;;;;;;;;;;5281272;28;20271;-74
2023/06/30 00:28:22;;;;;;;4.50;0.83;;;;;;;;;;5281610;28;20033;-74
2023/06/30 00:30:53;;;;;;;2.72;0.70;;;;;;;;;;5280623;28;20754;-75
2023/06/30 00:33:24;;;;;;;4.07;1.00;;;;;;;;;;5281392;28;20042;-75
2023/06/30 00:35:56;;;;;;;4.93;0.65;;;;;;;;;;5280777;28;20290;-74
2023/06/30 00:38:27;;;;;;;4.07;0.60;;;;;;;;;;5281436;28;20055;-74
2023/06/30 00:40:58;;;;;;;5.55;0.82;;;;;;;;;;5281586;28;20021;-75
2023/06/30 00:43:29;;;;;;;4.40;0.70;;;;;;;;;;5280874;28;20051;-74
2023/06/30 00:46:01;;;;;;;7.72;0.95;;;;;;;;;;5281447;28;20020;-74
2023/06/30 00:48:32;;;;;;;4.78;0.75;;;;;;;;;;5284534;28;20066;-74
2023/06/30 00:51:04;;;;;;;4.53;0.75;;;;;;;;;;5284431;28;20016;-74
2023/06/30 00:53:36;;;;;;;3.95;0.90;;;;;;;;;;5285231;28;20054;-74
2023/06/30 00:56:07;;;;;;;5.88;1.00;;;;;;;;;;5285178;28;20475;-74
2023/06/30 00:58:38;;;;;;;5.82;0.70;;;;;;;;;;5284700;28;20043;-74
2023/06/30 01:01:22;;;;;;;3.78;0.70;;;;;;;;;;5285393;28;20023;-74
2023/06/30 01:04:01;;;;;;;2.85;0.65;;;;;;;;;;5285181;28;20028;-74
2023/06/30 01:06:33;;;;;;;5.70;1.05;;;;;;;;;;5285371;28;20020;-74
2023/06/30 01:09:10;;;;;;;4.15;0.63;;;;;;;;;;5285394;28;20028;-74
2023/06/30 01:11:42;;;;;;;6.00;1.15;;;;;;;;;;5283894;28;20375;-74
2023/06/30 01:14:16;;;;;;;6.40;0.80;;;;;;;;;;5285474;28;20020;-74
2023/06/30 01:16:48;;;;;;;3.83;0.60;;;;;;;;;;5284689;28;20031;-74
2023/06/30 01:19:26;;;;;;;3.83;0.73;;;;;;;;;;5284608;28;20017;-74
2023/06/30 01:22:02;;;;;;;3.25;0.70;;;;;;;;;;5284781;28;20024;-75
2023/06/30 01:24:35;;;;;;;2.80;0.60;;;;;;;;;;5284690;28;20020;-74
2023/06/30 01:27:06;;;;;;;4.93;0.93;;;;;;;;;;5284027;28;20024;-74
2023/06/30 01:29:42;;;;;;;4.03;0.70;;;;;;;;;;5284742;28;20090;-74
2023/06/30 01:32:16;;;;;;;3.78;0.60;;;;;;;;;;5284037;28;20024;-74
2023/06/30 01:34:48;;;;;;;5.53;1.08;;;;;;;;;;5284282;28;20044;-74
2023/06/30 01:37:19;;;;;;;4.45;0.93;;;;;;;;;;5284899;28;20016;-73
2023/06/30 01:39:50;;;;;;;5.70;0.70;;;;;;;;;;5283226;28;20276;-74
2023/06/30 01:42:22;;;;;;;3.93;0.60;;;;;;;;;;5284465;28;20020;-75
2023/06/30 01:44:53;;;;;;;2.85;0.60;;;;;;;;;;5283829;28;20641;-74
2023/06/30 01:47:25;;;;;;;3.45;0.60;;;;;;;;;;5283795;28;20028;-75
2023/06/30 01:49:56;;;;;;;4.05;0.60;;;;;;;;;;5284393;28;20048;-74
2023/06/30 01:52:28;;;;;;;4.53;0.70;;;;;;;;;;5284008;28;20048;-75
2023/06/30 01:54:59;;;;;;;4.80;0.60;;;;;;;;;;5283186;28;20032;-74
2023/06/30 01:57:30;;;;;;;3.75;0.60;;;;;;;;;;5283849;28;20655;-75
2023/06/30 02:00:01;;;;;;;4.15;0.60;;;;;;;;;;5282787;28;20020;-74
2023/06/30 02:02:32;;;;;;;4.47;0.80;;;;;;;;;;5283679;28;20394;-75
2023/06/30 02:05:04;;;;;;;4.80;0.85;;;;;;;;;;5284220;28;20040;-74
2023/06/30 02:07:35;;;;;;;3.60;0.55;;;;;;;;;;5283093;28;20147;-75
2023/06/30 02:10:07;;;;;;;4.75;0.70;;;;;;;;;;5284127;28;20012;-73
2023/06/30 02:12:38;;;;;;;5.03;0.60;;;;;;;;;;5283836;28;20058;-73
2023/06/30 02:15:10;;;;;;;5.32;0.85;;;;;;;;;;5283163;28;20090;-73
2023/06/30 02:17:41;;;;;;;4.97;0.68;;;;;;;;;;5283458;28;20020;-75
2023/06/30 02:20:12;;;;;;;4.55;0.93;;;;;;;;;;5283972;28;20020;-74
2023/06/30 02:22:43;;;;;;;2.83;0.70;;;;;;;;;;5282412;28;20031;-74
2023/06/30 02:25:14;;;;;;;3.45;0.70;;;;;;;;;;5283943;28;20015;-75
2023/06/30 02:27:46;;;;;;;4.18;0.57;;;;;;;;;;5282813;28;20074;-75
2023/06/30 02:30:17;;;;;;;5.40;0.70;;;;;;;;;;5283143;28;20443;-75
2023/06/30 02:32:48;;;;;;;4.85;0.82;;;;;;;;;;5282836;28;20054;-75
2023/06/30 02:35:19;;;;;;;5.53;0.70;;;;;;;;;;5283447;28;20020;-75
2023/06/30 02:37:51;;;;;;;4.38;0.60;;;;;;;;;;5282130;28;20528;-75
2023/06/30 02:40:22;;;;;;;3.90;0.82;;;;;;;;;;5283451;28;20464;-75
2023/06/30 02:42:53;;;;;;;3.17;0.90;;;;;;;;;;5282049;28;20021;-74
2023/06/30 02:45:24;;;;;;;6.15;1.02;;;;;;;;;;5283050;28;20599;-74
2023/06/30 02:47:55;;;;;;;3.63;0.70;;;;;;;;;;5282986;28;20027;-75
2023/06/30 02:50:28;;;;;;;5.87;0.80;;;;;;;;;;5281821;28;20086;-74
2023/06/30 02:52:59;;;;;;;3.70;0.70;;;;;;;;;;5282901;28;20286;-75
2023/06/30 02:55:32;;;;;;;6.20;1.10;;;;;;;;;;5282883;28;20032;-75
2023/06/30 02:58:03;;;;;;;4.22;0.95;;;;;;;;;;5282069;28;20052;-76
2023/06/30 03:00:34;;;;;;;4.43;0.80;;;;;;;;;;5282974;28;20055;-75
2023/06/30 03:03:06;;;;;;;5.47;0.90;;;;;;;;;;5282603;28;20258;-75
2023/06/30 03:05:37;;;;;;;4.78;1.00;;;;;;;;;;5281859;28;20757;-74
2023/06/30 03:08:09;;;;;;;3.42;0.98;;;;;;;;;;5282282;28;20059;-75
2023/06/30 03:10:40;;;;;;;4.50;0.88;;;;;;;;;;5281277;28;20017;-75
2023/06/30 03:13:11;;;;;;;5.20;1.00;;;;;;;;;;5282691;28;20028;-75
2023/06/30 03:15:42;;;;;;;5.07;1.20;;;;;;;;;;5282137;28;20472;-75
2023/06/30 03:18:13;;;;;;;6.57;1.50;;;;;;;;;;5281821;28;20112;-75
2023/06/30 03:20:46;;;;;;;8.23;1.47;;;;;;;;;;5281769;28;20013;-74
2023/06/30 03:23:20;;;;;;;4.97;1.20;;;;;;;;;;5282581;28;20266;-75
2023/06/30 03:25:51;;;;;;;7.35;1.50;;;;;;;;;;5281232;28;20128;-73
2023/06/30 03:28:23;;;;;;;5.90;1.70;;;;;;;;;;5282148;28;20054;-75
2023/06/30 03:30:54;;;;;;;6.32;0.82;;;;;;;;;;5281991;28;20541;-74
2023/06/30 03:33:25;;;;;;;6.65;1.10;;;;;;;;;;5281268;28;20099;-75
2023/06/30 03:35:57;;;;;;;4.85;1.33;;;;;;;;;;5282249;28;20020;-75
2023/06/30 03:38:28;;;;;;;5.63;1.13;;;;;;;;;;5282193;28;20050;-75
2023/06/30 03:40:59;;;;;;;8.37;1.30;;;;;;;;;;5281418;28;20115;-75
2023/06/30 03:43:32;;;;;;;5.95;1.00;;;;;;;;;;5281857;28;20263;-75
2023/06/30 03:46:04;;;;;;;5.07;1.35;;;;;;;;;;5281396;28;20016;-75
2023/06/30 03:48:35;;;;;;;7.78;1.10;;;;;;;;;;5281631;28;20089;-75
2023/06/30 03:51:06;;;;;;;5.40;1.73;;;;;;;;;;5281717;28;20459;-75
2023/06/30 03:53:37;;;;;;;6.38;1.17;;;;;;;;;;5281206;28;20099;-74
2023/06/30 03:56:08;;;;;;;5.97;1.27;;;;;;;;;;5281839;28;20094;-74
2023/06/30 03:58:40;;;;;;;6.82;1.67;;;;;;;;;;5281792;28;20013;-74
2023/06/30 04:01:11;;;;;;;7.00;1.40;;;;;;;;;;5281058;28;20016;-74
2023/06/30 04:03:42;;;;;;;5.90;1.50;;;;;;;;;;5281400;28;20527;-74
2023/06/30 04:06:14;;;;;;;5.60;1.40;;;;;;;;;;5282010;28;20013;-74
2023/06/30 04:08:45;;;;;;;4.32;1.38;;;;;;;;;;5280367;28;20289;-74
2023/06/30 04:11:17;;;;;;;6.35;1.42;;;;;;;;;;5282123;28;20024;-74
2023/06/30 04:13:48;;;;;;;6.22;1.55;;;;;;;;;;5281548;28;20050;-74
2023/06/30 04:16:19;;;;;;;3.58;1.25;;;;;;;;;;5281258;28;20017;-75
2023/06/30 04:18:52;;;;;;;4.43;1.27;;;;;;;;;;5281794;28;20032;-75
2023/06/30 04:21:24;;;;;;;6.20;1.30;;;;;;;;;;5280636;28;20021;-74
2023/06/30 04:23:55;;;;;;;6.10;1.90;;;;;;;;;;5286021;28;20020;-73
2023/06/30 04:26:28;;;;;;;4.93;1.20;;;;;;;;;;5285619;28;20021;-74
2023/06/30 04:28:59;;;;;;;4.88;1.30;;;;;;;;;;5285030;28;20151;-74
2023/06/30 04:31:30;;;;;;;5.45;1.42;;;;;;;;;;5285780;28;20091;-75
2023/06/30 04:34:02;;;;;;;6.95;1.60;;;;;;;;;;5285692;28;20024;-75
2023/06/30 04:36:33;;;;;;;8.27;1.63;;;;;;;;;;5285085;28;20088;-74
2023/06/30 04:39:04;;;;;;;9.35;1.10;;;;;;;;;;5285537;28;20021;-76
2023/06/30 04:41:36;;;;;;;7.03;1.00;;;;;;;;;;5286439;28;20012;-75
2023/06/30 04:44:07;;;;;;;6.28;1.45;;;;;;;;;;5286064;28;20021;-74
2023/06/30 04:46:39;;;;;;;7.45;1.40;;;;;;;;;;5285567;28;20061;-73
2023/06/30 04:49:10;;;;;;;6.80;1.53;;;;;;;;;;5284724;28;20060;-73
2023/06/30 04:51:41;;;;;;;8.68;1.40;;;;;;;;;;5284628;28;20287;-74
2023/06/30 04:54:12;;;;;;;6.93;1.67;;;;;;;;;;5285780;28;20387;-77
2023/06/30 04:56:43;;;;;;;7.20;1.80;;;;;;;;;;5283821;28;20278;-77
2023/06/30 04:59:15;;;;;;;26.58;3.10;;;;;;;;;;5285367;28;20498;-78
2023/06/30 05:01:46;;;;;;;10.52;2.20;;;;;;;;;;5284631;28;20028;-77
2023/06/30 05:04:18;;;;;;;6.50;1.90;;;;;;;;;;5284561;28;20027;-78
2023/06/30 05:06:49;;;;;;;13.80;2.10;;;;;;;;;;5284628;28;20271;-78
2023/06/30 05:09:21;;;;;;;10.60;1.60;;;;;;;;;;5285349;28;20055;-78
2023/06/30 05:11:53;;;;;;;13.02;2.20;;;;;;;;;;5283841;28;20091;-78
2023/06/30 05:14:24;;;;;;;11.55;2.40;;;;;;;;;;5284851;28;20103;-77
2023/06/30 05:16:55;;;;;;;10.40;2.80;;;;;;;;;;5284450;28;20019;-77
2023/06/30 05:19:26;;;;;;;9.35;1.70;;;;;;;;;;5283851;28;20267;-75
2023/06/30 05:21:57;;;;;;;10.63;1.70;;;;;;;;;;5284930;28;20095;-76
2023/06/30 05:24:29;;;;;;;6.28;1.75;;;;;;;;;;5283600;28;20348;-76
2023/06/30 05:27:00;;;;;;;4.45;1.40;;;;;;;;;;5284408;28;20463;-76
2023/06/30 05:29:32;;;;;;;5.03;1.83;;;;;;;;;;5282967;28;20064;-77
2023/06/30 05:32:03;;;;;;;5.57;1.55;;;;;;;;;;5282612;28;20020;-78
2023/06/30 05:34:34;;;;;;;9.23;2.10;;;;;;;;;;5282681;28;20459;-77
2023/06/30 05:37:05;;;;;;;4.25;1.77;;;;;;;;;;5283507;28;20020;-78
2023/06/30 05:39:37;;;;;;;4.13;1.20;;;;;;;;;;5283060;28;20039;-76
2023/06/30 05:42:08;;;;;;;12.50;6.82;;;;;;;;;;5283754;28;20024;-76
2023/06/30 05:44:39;;;;;;;6.83;4.10;;;;;;;;;;5283557;28;20012;-76
2023/06/30 05:47:11;;;;;;;7.20;2.30;;;;;;;;;;5282837;28;20689;-76
2023/06/30 05:49:42;;;;;;;10.75;4.80;;;;;;;;;;5283455;28;20528;-77
2023/06/30 05:52:13;;;;;;;6.40;2.42;;;;;;;;;;5283989;28;20483;-76
2023/06/30 05:54:44;;;;;;;4.95;2.55;;;;;;;;;;5282627;28;20021;-77
2023/06/30 05:57:16;;;;;;;7.03;1.98;;;;;;;;;;5282844;28;20435;-76
2023/06/30 05:59:47;;;;;;;4.93;2.10;;;;;;;;;;5282773;28;20058;-77
2023/06/30 06:02:18;;;;;;;4.63;1.85;;;;;;;;;;5283711;28;20012;-77
2023/06/30 06:04:51;;;;;;;7.38;2.10;;;;;;;;;;5283223;28;20016;-77
2023/06/30 06:07:22;;;;;;;6.10;2.40;;;;;;;;;;5282898;28;20025;-76
2023/06/30 06:09:53;;;;;;;4.20;1.77;;;;;;;;;;5283485;28;20031;-77
2023/06/30 06:12:24;;;;;;;5.33;1.60;;;;;;;;;;5283532;28;20286;-77
2023/06/30 06:14:56;;;;;;;2.97;1.00;;;;;;;;;;5282329;28;20271;-77
2023/06/30 06:17:27;;;;;;;3.73;1.37;;;;;;;;;;5283151;28;20017;-76
2023/06/30 06:19:58;;;;;;;206.43;23.77;;;;;;;;;;5283175;28;20378;-76
2023/06/30 06:22:30;;;;;;;15.52;3.28;;;;;;;;;;5282542;28;20026;-79
2023/06/30 06:25:01;;;;;;;7.60;1.27;;;;;;;;;;5283436;28;20487;-80
2023/06/30 06:27:35;;;;;;;4.45;1.10;;;;;;;;;;5278095;28;20020;-80
2023/06/30 06:30:07;;;;;;;4.78;1.23;;;;;;;;;;5283098;28;20020;-79
2023/06/30 06:32:38;;;;;;;3.67;0.90;;;;;;;;;;5283364;28;20016;-80
2023/06/30 06:35:09;;;;;;;4.05;0.90;;;;;;;;;;5282061;28;20016;-81
2023/06/30 06:37:40;;;;;;;5.40;0.90;;;;;;;;;;5281710;28;20009;-81
2023/06/30 06:40:12;;;;;;;6.40;0.88;;;;;;;;;;5283075;28;20027;-79
2023/06/30 06:42:43;;;;;;;4.55;0.70;;;;;;;;;;5282057;28;20029;-80
2023/06/30 06:45:14;;;;;;;7.00;0.80;;;;;;;;;;5282669;28;20051;-80
2023/06/30 06:48:04;;;;;;;5.25;0.85;;;;;;;;;;5282828;28;20079;-79
2023/06/30 06:50:35;;;;;;;2.63;0.60;;;;;;;;;;5282211;28;20087;-81
2023/06/30 06:53:07;;;;;;;4.55;0.70;;;;;;;;;;5282405;28;20087;-80
2023/06/30 06:55:38;;;;;;;5.85;0.68;;;;;;;;;;5282986;28;20399;-80
2023/06/30 06:58:09;;;;;;;11.25;0.52;;;;;;;;;;5280855;28;20029;-79
2023/06/30 07:00:41;;;;;;;3.88;0.73;;;;;;;;;;5282262;28;20020;-79
2023/06/30 07:03:13;;;;;;;5.70;0.40;;;;;;;;;;5281975;28;20029;-79
2023/06/30 07:05:44;;;;;;;2.00;0.40;;;;;;;;;;5282110;28;20409;-80
2023/06/30 07:08:16;;;;;;;2.58;0.30;;;;;;;;;;5282564;28;20033;-80
2023/06/30 07:10:48;;;;;;;2.72;0.50;;;;;;;;;;5281575;28;20082;-80
2023/06/30 07:13:20;;;;;;;4.32;0.50;;;;;;;;;;5282726;28;20047;-80
2023/06/30 07:15:51;;;;;;;3.95;0.40;;;;;;;;;;5281883;28;20017;-80
2023/06/30 07:18:22;;;;;;;4.18;0.50;;;;;;;;;;5281681;28;20112;-79
2023/06/30 07:20:54;;;;;;;1.52;0.38;;;;;;;;;;5286025;28;20423;-79
2023/06/30 07:23:25;;;;;;;4.40;0.50;;;;;;;;;;5284373;28;20098;-81
2023/06/30 07:25:57;;;;;;;2.50;0.30;;;;;;;;;;5281496;28;20514;-77
2023/06/30 07:28:28;;;;;;;1.88;0.38;;;;;;;;;;5281810;28;20028;-79
2023/06/30 07:30:59;;;;;;;2.85;0.40;;;;;;;;;;5280864;28;20239;-79
2023/06/30 07:33:30;;;;;;;3.13;0.40;;;;;;;;;;5282087;28;20463;-78
2023/06/30 07:36:02;;;;;;;4.68;0.50;;;;;;;;;;5281665;28;20025;-78
2023/06/30 07:38:33;;;;;;;2.20;0.40;;;;;;;;;;5281229;28;20420;-78
2023/06/30 07:41:04;;;;;;;2.08;0.38;;;;;;;;;;5281625;28;20019;-76
2023/06/30 07:43:35;;;;;;;6.63;0.52;;;;;;;;;;5281460;28;20044;-78
2023/06/30 07:46:06;;;;;;;2.03;0.40;;;;;;;;;;5281037;28;20377;-77
2023/06/30 07:48:37;;;;;;;1.95;0.30;;;;;;;;;;5281386;28;20301;-77
2023/06/30 07:51:09;;;;;;;1.67;0.40;;;;;;;;;;5281321;28;20027;-78
2023/06/30 07:53:40;;;;;;;3.70;0.40;;;;;;;;;;5280363;28;20029;-78
2023/06/30 07:56:11;;;;;;;2.53;0.40;;;;;;;;;;5278217;28;20297;-77
2023/06/30 07:58:42;;;;;;;2.73;0.40;;;;;;;;;;5281401;28;20271;-79
2023/06/30 08:01:13;;;;;;;3.35;0.40;;;;;;;;;;5278014;28;20788;-79
2023/06/30 08:03:45;;;;;;;5.40;0.30;;;;;;;;;;5263325;28;20028;-73
2023/06/30 08:06:16;;;;;;;2.30;0.38;;;;;;;;;;5258675;28;20287;-74
2023/06/30 08:08:47;;;;;;;2.75;0.40;;;;;;;;;;5258866;28;20078;-74
2023/06/30 08:11:19;;;;;;;2.03;0.40;;;;;;;;;;5260621;28;20017;-72
2023/06/30 08:13:50;;;;;;;3.35;0.50;;;;;;;;;;5259398;28;20063;-74
2023/06/30 08:16:21;;;;;;;2.43;0.40;;;;;;;;;;5260792;28;20017;-79
2023/06/30 08:18:53;;;;;;;3.17;0.40;;;;;;;;;;5260433;28;20358;-77
2023/06/30 08:21:24;;;;;;;2.42;0.40;;;;;;;;;;5259684;28;20272;-78
2023/06/30 08:23:55;;;;;;;5.55;0.68;;;;;;;;;;5260608;28;20032;-78
2023/06/30 08:26:26;;;;;;;1.97;0.40;;;;;;;;;;5260010;28;20059;-78
2023/06/30 08:28:57;;;;;;;2.30;0.67;;;;;;;;;;5257877;28;20984;-77
2023/06/30 08:31:30;;;;;;;2.60;0.40;;;;;;;;;;5259618;28;20267;-77
2023/06/30 08:34:01;;;;;;;3.80;0.50;;;;;;;;;;5258886;28;20263;-77
2023/06/30 08:36:33;;;;;;;2.50;0.40;;;;;;;;;;5258312;28;20503;-77
2023/06/30 08:39:04;;;;;;;1.87;0.37;;;;;;;;;;5258277;28;20021;-77
2023/06/30 08:41:37;;;;;;;2.60;0.30;;;;;;;;;;5257525;28;20770;-77
2023/06/30 08:44:09;;;;;;;1.90;0.40;;;;;;;;;;5260433;28;20373;-77
2023/06/30 08:46:41;;;;;;;3.88;0.40;;;;;;;;;;5260112;28;20092;-77
2023/06/30 08:49:13;;;;;;;2.00;0.30;;;;;;;;;;5259981;28;20029;-77
2023/06/30 08:51:45;;;;;;;2.95;0.40;;;;;;;;;;5259695;28;20059;-77
2023/06/30 08:54:16;;;;;;;4.07;0.50;;;;;;;;;;5260605;28;20029;-77
2023/06/30 08:56:47;;;;;;;2.38;0.30;;;;;;;;;;5259568;28;20491;-77
2023/06/30 08:59:20;;;;;;;3.22;0.30;;;;;;;;;;5260649;28;20021;-77
2023/06/30 09:01:51;;;;;;;2.47;0.30;;;;;;;;;;5259614;28;20047;-77
2023/06/30 09:04:23;;;;;;;2.28;0.40;;;;;;;;;;5259657;28;20464;-76
2023/06/30 09:06:55;;;;;;;1.27;0.30;;;;;;;;;;5259844;28;20018;-76
2023/06/30 09:09:33;;;;;;;1.77;0.40;;;;;;;;;;5262786;28;20079;-76
2023/06/30 09:12:05;;;;;;;3.25;0.40;;;;;;;;;;5263995;28;20020;-77
2023/06/30 09:14:37;;;;;;;4.90;0.50;;;;;;;;;;5263929;28;20017;-76
2023/06/30 09:17:09;;;;;;;1.67;0.30;;;;;;;;;;5263098;28;20025;-77
2023/06/30 09:19:40;;;;;;;3.00;0.65;;;;;;;;;;5264043;28;20032;-77
2023/06/30 09:22:11;;;;;;;2.13;0.30;;;;;;;;;;5263971;28;20031;-77
2023/06/30 09:24:42;;;;;;;6.03;0.37;;;;;;;;;;5263025;28;20487;-77
2023/06/30 09:27:14;;;;;;;1.45;0.40;;;;;;;;;;5264166;28;20044;-77
2023/06/30 09:29:52;;;;;;;3.75;0.40;;;;;;;;;;5263842;28;20475;-78
2023/06/30 09:32:23;;;;;;;;;;;;;;;;;;5263577;28;20021;-77
2023/06/30 09:34:54;;;;;;;3.70;0.40;;;;;;;;;;5263605;28;19912;-77
2023/06/30 09:37:26;;;;;;;1.55;0.35;;;;;;;;;;5263077;28;20044;-77
2023/06/30 09:39:57;;;;;;;2.58;0.30;;;;;;;;;;5263486;28;20021;-77
2023/06/30 09:42:29;;;;;;;1.63;0.30;;;;;;;;;;5263669;28;20384;-78
2023/06/30 09:45:00;;;;;;;1.45;0.30;;;;;;;;;;5262878;28;20104;-78
2023/06/30 09:47:31;;;;;;;3.03;0.45;;;;;;;;;;5263483;28;20045;-78
2023/06/30 09:50:06;;;;;;;1.83;0.30;;;;;;;;;;5263252;28;20131;-77
2023/06/30 09:52:37;;;;;;;1.77;0.40;;;;;;;;;;5262283;28;20646;-77
2023/06/30 09:55:09;;;;;;;3.20;0.50;;;;;;;;;;5263058;28;20017;-76
2023/06/30 09:57:43;;;;;;;2.22;0.30;;;;;;;;;;5262752;28;20263;-77
2023/06/30 10:00:16;;;;;;;1.58;0.40;;;;;;;;;;5262863;28;20025;-77
2023/06/30 10:03:00;;;;;;;2.10;0.30;;;;;;;;;;5262704;28;20028;-71
2023/06/30 10:05:32;;;;;;;1.83;0.30;;;;;;;;;;5262835;28;20033;-73
2023/06/30 10:08:03;;;;;;;1.43;0.40;;;;;;;;;;5262280;28;20040;-73
2023/06/30 10:10:34;;;;;;;2.55;0.30;;;;;;;;;;5263035;28;20415;-73
2023/06/30 10:13:05;;;;;;;1.43;0.23;;;;;;;;;;5262038;28;20071;-74
2023/06/30 10:15:37;;;;;;;4.20;0.40;;;;;;;;;;5262818;28;20272;-73
2023/06/30 10:18:12;;;;;;;3.25;0.50;;;;;;;;;;5262828;28;20357;-74
2023/06/30 10:20:44;;;;;;;1.58;0.30;;;;;;;;;;5260814;28;20108;-74
2023/06/30 10:23:16;;;;;;;1.88;0.30;;;;;;;;;;5262977;28;20105;-73
2023/06/30 10:25:48;;;;;;;1.88;0.30;;;;;;;;;;5262209;28;20029;-72
2023/06/30 10:28:20;;;;;;;4.65;0.30;;;;;;;;;;5261990;28;20365;-73
2023/06/30 10:30:51;;;;;;;1.48;0.30;;;;;;;;;;5262023;28;20009;-73
2023/06/30 10:33:22;;;;;;;3.35;0.50;;;;;;;;;;5262669;28;20021;-73
2023/06/30 10:35:54;;;;;;;4.13;0.40;;;;;;;;;;5260945;28;20013;-73
2023/06/30 10:38:26;;;;;;;2.25;0.40;;;;;;;;;;5262084;28;20056;-73
2023/06/30 10:41:13;;;;;;;3.20;0.40;;;;;;;;;;5261544;28;20044;-73
2023/06/30 10:43:59;;;;;;;1.27;0.28;;;;;;;;;;5261893;28;20100;-72
2023/06/30 10:46:53;;;;;;;1.33;0.25;;;;;;;;;;5262026;28;20415;-72
2023/06/30 10:49:31;;;;;;;1.13;0.32;;;;;;;;;;5261381;28;20036;-73
2023/06/30 10:52:04;;;;;;;1.05;0.30;;;;;;;;;;5262026;28;20171;-73
2023/06/30 10:54:40;;;;;;;1.40;0.30;;;;;;;;;;5262075;28;20024;-73
2023/06/30 10:57:14;;;;;;;1.80;0.20;;;;;;;;;;5261416;28;20029;-73
2023/06/30 10:59:46;;;;;;;3.45;0.40;;;;;;;;;;5261385;28;20360;-72
2023/06/30 11:02:17;;;;;;;3.92;0.63;;;;;;;;;;5261295;28;20013;-71
2023/06/30 11:04:50;;;;;;;1.70;0.30;;;;;;;;;;5261359;28;20464;-72
2023/06/30 11:07:28;;;;;;;1.50;0.30;;;;;;;;;;5261713;28;20013;-70
2023/06/30 11:09:59;;;;;;;7.13;0.40;;;;;;;;;;5261110;28;20377;-72
2023/06/30 11:12:50;;;;;;;1.55;0.30;;;;;;;;;;5261450;28;20013;-72
2023/06/30 11:15:48;;;;;;;2.60;0.30;;;;;;;;;;5261837;28;20108;-73
2023/06/30 11:18:22;;;;;;;2.30;0.40;;;;;;;;;;5259904;28;20489;-72
2023/06/30 11:20:59;;;;;;;1.52;0.45;;;;;;;;;;5261280;28;20017;-71
2023/06/30 11:23:36;;;;;;;1.77;0.35;;;;;;;;;;5260815;28;20467;-73
2023/06/30 11:26:14;;;;;;;3.53;0.50;;;;;;;;;;5261669;28;20537;-72
2023/06/30 11:28:49;;;;;;;4.93;0.50;;;;;;;;;;5261232;28;20074;-73
2023/06/30 11:31:20;;;;;;;1.75;0.28;;;;;;;;;;5260564;28;20063;-72
2023/06/30 11:33:53;;;;;;;1.95;0.40;;;;;;;;;;5260885;28;20468;-73
2023/06/30 11:36:29;;;;;;;2.05;0.50;;;;;;;;;;5261282;28;20380;-73
2023/06/30 11:39:01;;;;;;;3.10;0.65;;;;;;;;;;5260273;28;20032;-72
2023/06/30 11:41:33;;;;;;;3.25;0.50;;;;;;;;;;5261181;28;20024;-73
2023/06/30 11:44:04;;;;;;;6.20;0.50;;;;;;;;;;5260261;28;20017;-73
2023/06/30 11:46:36;;;;;;;4.10;0.70;;;;;;;;;;5261170;28;20410;-73
2023/06/30 11:49:09;;;;;;;1.60;0.50;;;;;;;;;;5260965;28;20662;-73
2023/06/30 11:51:40;;;;;;;2.65;0.60;;;;;;;;;;5259924;28;20049;-73
2023/06/30 11:54:13;;;;;;;3.40;0.63;;;;;;;;;;5261369;28;20020;-73
2023/06/30 11:56:44;;;;;;;4.18;0.85;;;;;;;;;;5260683;28;20267;-74
2023/06/30 11:59:16;;;;;;;1.40;0.53;;;;;;;;;;5260318;28;20609;-73
2023/06/30 12:01:47;;;;;;;1.80;0.50;;;;;;;;;;5260410;28;20332;-73
2023/06/30 12:04:18;;;;;;;2.63;0.60;;;;;;;;;;5261231;28;20266;-73
2023/06/30 12:06:49;;;;;;;4.20;0.80;;;;;;;;;;5259906;28;20284;-72
2023/06/30 12:09:22;;;;;;;3.83;0.60;;;;;;;;;;5261150;28;20030;-73
2023/06/30 12:11:55;;;;;;;3.45;0.60;;;;;;;;;;5260354;28;20044;-73
2023/06/30 12:14:27;;;;;;;3.00;0.63;;;;;;;;;;5260062;28;20017;-73
2023/06/30 12:16:58;;;;;;;5.13;0.85;;;;;;;;;;5260806;28;20604;-73
2023/06/30 12:19:29;;;;;;;3.13;0.90;;;;;;;;;;5259742;28;20416;-73
2023/06/30 12:22:03;;;;;;;4.47;1.02;;;;;;;;;;5260524;28;20657;-71
2023/06/30 12:24:34;;;;;;;4.60;0.85;;;;;;;;;;5260642;28;20529;-72
2023/06/30 12:27:06;;;;;;;2.35;0.73;;;;;;;;;;5259983;28;20109;-72
2023/06/30 12:29:44;;;;;;;2.08;0.70;;;;;;;;;;5260540;28;20423;-72
2023/06/30 12:32:16;;;;;;;4.18;0.75;;;;;;;;;;5260320;28;20013;-73
2023/06/30 12:34:47;;;;;;;3.78;0.70;;;;;;;;;;5259278;28;20024;-73
2023/06/30 12:37:19;;;;;;;4.32;0.65;;;;;;;;;;5260813;28;20027;-72
2023/06/30 12:39:50;;;;;;;6.10;1.35;;;;;;;;;;5260197;28;20567;-73
2023/06/30 12:42:22;;;;;;;4.27;0.80;;;;;;;;;;5259908;28;20028;-72
2023/06/30 12:44:54;;;;;;;3.22;0.70;;;;;;;;;;5264163;28;20267;-73
2023/06/30 12:47:25;;;;;;;6.00;0.70;;;;;;;;;;5264196;28;20036;-74
2023/06/30 12:49:56;;;;;;;3.33;0.80;;;;;;;;;;5257558;28;20037;-73
2023/06/30 12:52:27;;;;;;;2.92;0.77;;;;;;;;;;5284954;28;20051;-73
2023/06/30 12:54:59;;;;;;;3.23;0.50;;;;;;;;;;5280136;28;20036;-75
2023/06/30 12:57:31;;;;;;;3.05;0.60;;;;;;;;;;5272043;28;20591;-73
2023/06/30 13:00:04;;;;;;;2.27;0.50;;;;;;;;;;5283001;28;20024;-74
2023/06/30 13:02:35;;;;;;;4.07;0.85;;;;;;;;;;5281299;28;20305;-75
2023/06/30 13:05:06;;;;;;;4.13;1.17;;;;;;;;;;5283485;28;20040;-73
2023/06/30 13:07:38;;;;;;;3.45;0.50;;;;;;;;;;5284263;28;20048;-73
2023/06/30 13:10:09;;;;;;;3.42;0.52;;;;;;;;;;5284097;28;20025;-75
2023/06/30 13:12:41;;;;;;;3.47;0.85;;;;;;;;;;5284150;28;20372;-74
2023/06/30 13:15:12;;;;;;;2.30;0.45;;;;;;;;;;5283575;28;20401;-78
2023/06/30 13:17:43;;;;;;;2.20;0.60;;;;;;;;;;5282939;28;20025;-79
2023/06/30 13:20:14;;;;;;;3.28;0.52;;;;;;;;;;5285209;28;20317;-79
2023/06/30 13:22:45;;;;;;;2.85;0.55;;;;;;;;;;5283681;28;20414;-80
2023/06/30 13:25:18;;;;;;;3.47;0.50;;;;;;;;;;5285181;28;20082;-78
2023/06/30 13:27:50;;;;;;;2.92;0.47;;;;;;;;;;5284495;28;20431;-78
2023/06/30 13:30:21;;;;;;;4.17;0.50;;;;;;;;;;5284182;28;20119;-78
2023/06/30 13:32:52;;;;;;;2.03;0.50;;;;;;;;;;5284303;28;20590;-79
2023/06/30 13:35:23;;;;;;;2.50;0.57;;;;;;;;;;5284591;28;20025;-79
2023/06/30 13:37:55;;;;;;;2.38;0.45;;;;;;;;;;5283722;28;20505;-79
2023/06/30 13:40:26;;;;;;;2.73;0.60;;;;;;;;;;5284523;28;20391;-76
2023/06/30 13:42:57;;;;;;;3.77;0.50;;;;;;;;;;5284279;28;20385;-76
2023/06/30 13:45:28;;;;;;;2.25;0.43;;;;;;;;;;5283303;28;20347;-76
2023/06/30 13:47:59;;;;;;;5.00;0.60;;;;;;;;;;5283968;28;20041;-74
2023/06/30 13:50:30;;;;;;;2.60;0.40;;;;;;;;;;5284228;28;20528;-76
2023/06/30 13:53:02;;;;;;;3.03;0.43;;;;;;;;;;5283227;28;20345;-77
2023/06/30 13:55:33;;;;;;;4.13;0.60;;;;;;;;;;5283827;28;20259;-75
2023/06/30 13:58:04;;;;;;;4.43;0.40;;;;;;;;;;5283226;28;20016;-73
2023/06/30 14:00:35;;;;;;;2.47;0.50;;;;;;;;;;5283924;28;20274;-74
2023/06/30 14:03:06;;;;;;;4.83;0.50;;;;;;;;;;5283960;28;20273;-75
2023/06/30 14:05:38;;;;;;;2.50;0.70;;;;;;;;;;5283035;28;20354;-75
2023/06/30 14:08:09;;;;;;;2.83;0.40;;;;;;;;;;5283612;28;20032;-75
2023/06/30 14:10:40;;;;;;;2.30;0.30;;;;;;;;;;5283545;28;20263;-75
2023/06/30 14:13:11;;;;;;;2.33;0.50;;;;;;;;;;5283154;28;20024;-75
2023/06/30 14:15:43;;;;;;;2.35;0.40;;;;;;;;;;5283051;28;20780;-75
2023/06/30 14:18:14;;;;;;;1.30;0.30;;;;;;;;;;5283551;28;20033;-75
2023/06/30 14:20:47;;;;;;;2.00;0.40;;;;;;;;;;5282318;28;20255;-75
2023/06/30 14:23:18;;;;;;;1.50;0.32;;;;;;;;;;5283677;28;20400;-75
2023/06/30 14:25:49;;;;;;;2.13;0.30;;;;;;;;;;5282341;28;20095;-75
2023/06/30 14:28:21;;;;;;;3.10;0.40;;;;;;;;;;5283572;28;20283;-76
2023/06/30 14:30:52;;;;;;;1.35;0.30;;;;;;;;;;5282806;28;20271;-76
2023/06/30 14:33:23;;;;;;;2.25;0.40;;;;;;;;;;5282339;28;20406;-75
2023/06/30 14:35:54;;;;;;;1.55;0.32;;;;;;;;;;5283114;28;20068;-75
2023/06/30 14:38:25;;;;;;;2.60;0.30;;;;;;;;;;5283292;28;20028;-77
2023/06/30 14:40:57;;;;;;;2.07;0.40;;;;;;;;;;5282403;28;20031;-75
2023/06/30 14:43:28;;;;;;;2.57;0.30;;;;;;;;;;5282734;28;20130;-74
2023/06/30 14:45:59;;;;;;;3.53;0.40;;;;;;;;;;5282019;28;20048;-75
2023/06/30 14:48:31;;;;;;;3.50;0.30;;;;;;;;;;5282221;28;20641;-75
2023/06/30 14:51:02;;;;;;;2.45;0.40;;;;;;;;;;5282589;28;20020;-75
2023/06/30 14:53:33;;;;;;;1.77;0.32;;;;;;;;;;5282293;28;20382;-75
2023/06/30 14:56:04;;;;;;;1.80;0.30;;;;;;;;;;5281233;28;20030;-74
2023/06/30 14:58:36;;;;;;;1.65;0.40;;;;;;;;;;5281579;28;20622;-74
2023/06/30 15:01:08;;;;;;;2.30;0.50;;;;;;;;;;5281099;28;20425;-79
2023/06/30 15:03:39;;;;;;;2.42;0.30;;;;;;;;;;5281897;28;20016;-78
2023/06/30 15:06:11;;;;;;;2.17;0.40;;;;;;;;;;5281097;28;20016;-80
2023/06/30 15:08:42;;;;;;;2.50;0.45;;;;;;;;;;5280711;28;20040;-80
2023/06/30 15:11:13;;;;;;;2.80;0.50;;;;;;;;;;5281905;28;20025;-80